sensor_id;sensor_type;location;lat;lon;timestamp;temperature;humidity
6863;DHT22;3470;48.738;9.616;2023-04-24T00:01:55;9.20;99.90
6863;DHT22;3470;48.738;9.616;2023-04-24T00:04:21;9.10;99.90
6863;DHT22;3470;48.738;9.616;2023-04-24T00:06:47;9.10;99.90
6863;DHT22;3470;48.738;9.616;2023-04-24T00:09:19;9.10;99.90
6863;DHT22;3470;48.738;9.616;2023-04-24T00:11:45;9.10;99.90
6863;DHT22;3470;48.738;9.616;2023-04-24T00:14:10;9.10;99.90
6863;DHT22;3470;48.738;9.616;2023-04-24T00:16:36;9.10;99.90
6863;DHT22;3470;48.738;9.616;2023-04-24T00:19:01;9.10;99.90
6863;DHT22;3470;48.738;9.616;2023-04-24T00:21:27;9.10;99.90
6863;DHT22;3470;48.738;9.616;2023-04-24T00:23:53;9.10;99.90
6863;DHT22;3470;48.738;9.616;2023-04-24T00:26:18;9.10;99.90
6863;DHT22;3470;48.738;9.616;2023-04-24T00:28:44;9.10;99.90
6863;DHT22;3470;48.738;9.616;2023-04-24T00:31:09;9.10;99.90
6863;DHT22;3470;48.738;9.616;2023-04-24T00:33:35;9.20;99.90
6863;DHT22;3470;48.738;9.616;2023-04-24T00:36:01;9.20;99.90
6863;DHT22;3470;48.738;9.616;2023-04-24T00:38:26;9.20;99.90
6863;DHT22;3470;48.738;9.616;2023-04-24T00:40:52;9.20;99.90
6863;DHT22;3470;48.738;9.616;2023-04-24T00:43:19;9.20;99.90
6863;DHT22;3470;48.738;9.616;2023-04-24T00:45:45;9.30;99.90
6863;DHT22;3470;48.738;9.616;2023-04-24T00:48:11;9.30;99.90
6863;DHT22;3470;48.738;9.616;2023-04-24T00:50:38;9.30;99.90
6863;DHT22;3470;48.738;9.616;2023-04-24T00:53:04;9.30;99.90
6863;DHT22;3470;48.738;9.616;2023-04-24T00:55:30;9.30;99.90
6863;DHT22;3470;48.738;9.616;2023-04-24T00:57:55;9.30;99.90
6863;DHT22;3470;48.738;9.616;2023-04-24T01:00:21;9.20;99.90
6863;DHT22;3470;48.738;9.616;2023-04-24T01:02:47;9.20;99.90
6863;DHT22;3470;48.738;9.616;2023-04-24T01:05:14;9.20;99.90
6863;DHT22;3470;48.738;9.616;2023-04-24T01:07:41;9.20;99.90
6863;DHT22;3470;48.738;9.616;2023-04-24T01:10:09;9.20;99.90
6863;DHT22;3470;48.738;9.616;2023-04-24T01:12:35;9.20;99.90
6863;DHT22;3470;48.738;9.616;2023-04-24T01:15:01;9.20;99.90
6863;DHT22;3470;48.738;9.616;2023-04-24T01:17:29;9.10;99.90
6863;DHT22;3470;48.738;9.616;2023-04-24T01:19:55;9.20;99.90
6863;DHT22;3470;48.738;9.616;2023-04-24T01:22:22;9.20;99.90
6863;DHT22;3470;48.738;9.616;2023-04-24T01:24:48;9.10;99.90
6863;DHT22;3470;48.738;9.616;2023-04-24T01:27:14;9.20;99.90
6863;DHT22;3470;48.738;9.616;2023-04-24T01:29:41;9.10;99.90
6863;DHT22;3470;48.738;9.616;2023-04-24T01:32:06;9.10;99.90
6863;DHT22;3470;48.738;9.616;2023-04-24T01:34:33;9.10;99.90
6863;DHT22;3470;48.738;9.616;2023-04-24T01:36:58;9.10;99.90
6863;DHT22;3470;48.738;9.616;2023-04-24T01:39:24;9.20;99.90
6863;DHT22;3470;48.738;9.616;2023-04-24T01:41:51;9.20;99.90
6863;DHT22;3470;48.738;9.616;2023-04-24T01:44:18;9.20;99.90
6863;DHT22;3470;48.738;9.616;2023-04-24T01:46:43;9.20;99.90
6863;DHT22;3470;48.738;9.616;2023-04-24T01:49:09;9.20;99.90
6863;DHT22;3470;48.738;9.616;2023-04-24T01:51:35;9.20;99.90
6863;DHT22;3470;48.738;9.616;2023-04-24T01:54:00;9.20;99.90
6863;DHT22;3470;48.738;9.616;2023-04-24T01:56:29;9.20;99.90
6863;DHT22;3470;48.738;9.616;2023-04-24T01:58:56;9.10;99.90
6863;DHT22;3470;48.738;9.616;2023-04-24T02:01:24;9.10;99.90
6863;DHT22;3470;48.738;9.616;2023-04-24T02:03:49;9.10;99.90
6863;DHT22;3470;48.738;9.616;2023-04-24T02:06:15;9.10;99.90
6863;DHT22;3470;48.738;9.616;2023-04-24T02:08:41;9.10;99.90
6863;DHT22;3470;48.738;9.616;2023-04-24T02:11:09;9.00;99.90
6863;DHT22;3470;48.738;9.616;2023-04-24T02:13:34;9.00;99.90
6863;DHT22;3470;48.738;9.616;2023-04-24T02:16:00;9.00;99.90
6863;DHT22;3470;48.738;9.616;2023-04-24T02:18:26;8.90;99.90
6863;DHT22;3470;48.738;9.616;2023-04-24T02:20:51;8.90;99.90
6863;DHT22;3470;48.738;9.616;2023-04-24T02:23:17;9.00;99.90
6863;DHT22;3470;48.738;9.616;2023-04-24T02:25:43;8.90;99.90
6863;DHT22;3470;48.738;9.616;2023-04-24T02:28:08;8.90;99.90
6863;DHT22;3470;48.738;9.616;2023-04-24T02:30:34;8.90;99.90
6863;DHT22;3470;48.738;9.616;2023-04-24T02:32:59;9.00;99.90
6863;DHT22;3470;48.738;9.616;2023-04-24T02:35:25;9.00;99.90
6863;DHT22;3470;48.738;9.616;2023-04-24T02:37:51;9.00;99.90
6863;DHT22;3470;48.738;9.616;2023-04-24T02:40:16;9.00;99.90
6863;DHT22;3470;48.738;9.616;2023-04-24T02:42:42;8.90;99.90
6863;DHT22;3470;48.738;9.616;2023-04-24T02:45:08;8.90;99.90
6863;DHT22;3470;48.738;9.616;2023-04-24T02:47:33;8.90;99.90
6863;DHT22;3470;48.738;9.616;2023-04-24T02:49:59;8.80;99.90
6863;DHT22;3470;48.738;9.616;2023-04-24T02:52:24;8.80;99.90
6863;DHT22;3470;48.738;9.616;2023-04-24T02:54:50;8.80;99.90
6863;DHT22;3470;48.738;9.616;2023-04-24T02:57:15;8.80;99.90
6863;DHT22;3470;48.738;9.616;2023-04-24T02:59:41;8.90;99.90
6863;DHT22;3470;48.738;9.616;2023-04-24T03:02:07;8.90;99.90
6863;DHT22;3470;48.738;9.616;2023-04-24T03:04:32;8.80;99.90
6863;DHT22;3470;48.738;9.616;2023-04-24T03:06:58;8.80;99.90
6863;DHT22;3470;48.738;9.616;2023-04-24T03:09:24;8.70;99.90
6863;DHT22;3470;48.738;9.616;2023-04-24T03:11:49;8.70;99.90
6863;DHT22;3470;48.738;9.616;2023-04-24T03:14:16;8.60;99.90
6863;DHT22;3470;48.738;9.616;2023-04-24T03:16:41;8.70;99.90
6863;DHT22;3470;48.738;9.616;2023-04-24T03:19:07;8.70;99.90
6863;DHT22;3470;48.738;9.616;2023-04-24T03:21:33;8.70;99.90
6863;DHT22;3470;48.738;9.616;2023-04-24T03:23:58;8.80;99.90
6863;DHT22;3470;48.738;9.616;2023-04-24T03:26:24;8.80;99.90
6863;DHT22;3470;48.738;9.616;2023-04-24T03:28:50;8.80;99.90
6863;DHT22;3470;48.738;9.616;2023-04-24T03:31:16;8.80;99.90
6863;DHT22;3470;48.738;9.616;2023-04-24T03:33:42;8.80;99.90
6863;DHT22;3470;48.738;9.616;2023-04-24T03:36:08;8.80;99.90
6863;DHT22;3470;48.738;9.616;2023-04-24T03:38:33;8.80;99.90
6863;DHT22;3470;48.738;9.616;2023-04-24T03:40:59;8.90;99.90
6863;DHT22;3470;48.738;9.616;2023-04-24T03:43:24;8.90;99.90
6863;DHT22;3470;48.738;9.616;2023-04-24T03:45:50;9.00;99.90
6863;DHT22;3470;48.738;9.616;2023-04-24T03:48:16;9.00;99.90
6863;DHT22;3470;48.738;9.616;2023-04-24T03:50:41;9.00;99.90
6863;DHT22;3470;48.738;9.616;2023-04-24T03:53:10;8.90;99.90
6863;DHT22;3470;48.738;9.616;2023-04-24T03:55:35;8.90;99.90
6863;DHT22;3470;48.738;9.616;2023-04-24T03:58:01;9.00;99.90
6863;DHT22;3470;48.738;9.616;2023-04-24T04:00:26;8.90;99.90
6863;DHT22;3470;48.738;9.616;2023-04-24T04:02:53;8.90;99.90
6863;DHT22;3470;48.738;9.616;2023-04-24T04:05:18;8.90;99.90
6863;DHT22;3470;48.738;9.616;2023-04-24T04:07:44;8.90;99.90
6863;DHT22;3470;48.738;9.616;2023-04-24T04:10:09;8.90;99.90
6863;DHT22;3470;48.738;9.616;2023-04-24T04:12:35;8.90;99.90
6863;DHT22;3470;48.738;9.616;2023-04-24T04:15:01;8.90;99.90
6863;DHT22;3470;48.738;9.616;2023-04-24T04:17:26;8.90;99.90
6863;DHT22;3470;48.738;9.616;2023-04-24T04:19:52;8.90;99.90
6863;DHT22;3470;48.738;9.616;2023-04-24T04:22:17;8.90;99.90
6863;DHT22;3470;48.738;9.616;2023-04-24T04:24:43;8.90;99.90
6863;DHT22;3470;48.738;9.616;2023-04-24T04:27:09;8.80;99.90
6863;DHT22;3470;48.738;9.616;2023-04-24T04:29:36;8.70;99.90
6863;DHT22;3470;48.738;9.616;2023-04-24T04:32:02;8.70;99.90
6863;DHT22;3470;48.738;9.616;2023-04-24T04:34:27;8.70;99.90
6863;DHT22;3470;48.738;9.616;2023-04-24T04:36:54;8.70;99.90
6863;DHT22;3470;48.738;9.616;2023-04-24T04:39:19;8.70;99.90
6863;DHT22;3470;48.738;9.616;2023-04-24T04:41:45;8.70;99.90
6863;DHT22;3470;48.738;9.616;2023-04-24T04:44:14;8.80;99.90
6863;DHT22;3470;48.738;9.616;2023-04-24T04:46:40;8.80;99.90
6863;DHT22;3470;48.738;9.616;2023-04-24T04:49:07;8.90;99.90
6863;DHT22;3470;48.738;9.616;2023-04-24T04:51:34;8.90;99.90
6863;DHT22;3470;48.738;9.616;2023-04-24T04:54:00;9.00;99.90
6863;DHT22;3470;48.738;9.616;2023-04-24T04:56:25;9.00;99.90
6863;DHT22;3470;48.738;9.616;2023-04-24T04:58:51;9.00;99.90
6863;DHT22;3470;48.738;9.616;2023-04-24T05:01:17;9.10;99.90
6863;DHT22;3470;48.738;9.616;2023-04-24T05:03:42;9.10;99.90
6863;DHT22;3470;48.738;9.616;2023-04-24T05:06:08;9.20;99.90
6863;DHT22;3470;48.738;9.616;2023-04-24T05:08:34;9.30;99.90
6863;DHT22;3470;48.738;9.616;2023-04-24T05:11:00;9.30;99.90
6863;DHT22;3470;48.738;9.616;2023-04-24T05:13:25;9.40;99.90
6863;DHT22;3470;48.738;9.616;2023-04-24T05:15:51;9.30;99.90
6863;DHT22;3470;48.738;9.616;2023-04-24T05:18:17;9.10;99.90
6863;DHT22;3470;48.738;9.616;2023-04-24T05:20:42;8.80;99.90
6863;DHT22;3470;48.738;9.616;2023-04-24T05:23:09;8.60;99.90
6863;DHT22;3470;48.738;9.616;2023-04-24T05:25:35;8.50;99.90
6863;DHT22;3470;48.738;9.616;2023-04-24T05:28:01;8.40;99.90
6863;DHT22;3470;48.738;9.616;2023-04-24T05:30:27;8.40;99.90
6863;DHT22;3470;48.738;9.616;2023-04-24T05:32:53;8.40;99.90
6863;DHT22;3470;48.738;9.616;2023-04-24T05:35:19;8.40;99.90
6863;DHT22;3470;48.738;9.616;2023-04-24T05:37:44;8.30;99.90
6863;DHT22;3470;48.738;9.616;2023-04-24T05:40:10;8.30;99.90
6863;DHT22;3470;48.738;9.616;2023-04-24T05:42:36;8.30;99.90
6863;DHT22;3470;48.738;9.616;2023-04-24T05:45:02;8.30;99.90
6863;DHT22;3470;48.738;9.616;2023-04-24T05:47:27;8.30;99.90
6863;DHT22;3470;48.738;9.616;2023-04-24T05:49:53;8.30;99.90
6863;DHT22;3470;48.738;9.616;2023-04-24T05:52:19;8.20;99.90
6863;DHT22;3470;48.738;9.616;2023-04-24T05:54:44;8.20;99.90
6863;DHT22;3470;48.738;9.616;2023-04-24T05:57:10;8.10;99.90
6863;DHT22;3470;48.738;9.616;2023-04-24T05:59:39;8.00;99.90
6863;DHT22;3470;48.738;9.616;2023-04-24T06:02:04;8.00;99.90
6863;DHT22;3470;48.738;9.616;2023-04-24T06:04:31;8.00;99.90
6863;DHT22;3470;48.738;9.616;2023-04-24T06:06:56;8.00;99.90
6863;DHT22;3470;48.738;9.616;2023-04-24T06:09:22;8.10;99.90
6863;DHT22;3470;48.738;9.616;2023-04-24T06:11:49;8.10;99.90
6863;DHT22;3470;48.738;9.616;2023-04-24T06:14:15;8.10;99.90
6863;DHT22;3470;48.738;9.616;2023-04-24T06:16:42;8.10;99.90
6863;DHT22;3470;48.738;9.616;2023-04-24T06:19:07;8.10;99.90
6863;DHT22;3470;48.738;9.616;2023-04-24T06:21:33;8.20;99.90
6863;DHT22;3470;48.738;9.616;2023-04-24T06:23:59;8.30;99.90
6863;DHT22;3470;48.738;9.616;2023-04-24T06:26:25;8.30;99.90
6863;DHT22;3470;48.738;9.616;2023-04-24T06:28:52;8.40;99.90
6863;DHT22;3470;48.738;9.616;2023-04-24T06:31:19;8.40;99.90
6863;DHT22;3470;48.738;9.616;2023-04-24T06:33:45;8.50;99.90
6863;DHT22;3470;48.738;9.616;2023-04-24T06:36:11;8.60;99.90
6863;DHT22;3470;48.738;9.616;2023-04-24T06:38:36;8.60;99.90
6863;DHT22;3470;48.738;9.616;2023-04-24T06:41:02;8.70;99.90
6863;DHT22;3470;48.738;9.616;2023-04-24T06:43:30;8.80;99.90
6863;DHT22;3470;48.738;9.616;2023-04-24T06:45:57;9.00;99.90
6863;DHT22;3470;48.738;9.616;2023-04-24T06:48:24;9.10;99.90
6863;DHT22;3470;48.738;9.616;2023-04-24T06:50:49;9.20;99.90
6863;DHT22;3470;48.738;9.616;2023-04-24T06:53:15;9.10;99.90
6863;DHT22;3470;48.738;9.616;2023-04-24T06:55:41;9.00;99.90
6863;DHT22;3470;48.738;9.616;2023-04-24T06:58:07;9.10;99.90
6863;DHT22;3470;48.738;9.616;2023-04-24T07:00:33;10.20;99.90
6863;DHT22;3470;48.738;9.616;2023-04-24T07:02:58;10.90;99.90
6863;DHT22;3470;48.738;9.616;2023-04-24T07:05:24;11.80;99.90
6863;DHT22;3470;48.738;9.616;2023-04-24T07:07:49;12.70;99.90
6863;DHT22;3470;48.738;9.616;2023-04-24T07:10:16;13.30;99.90
6863;DHT22;3470;48.738;9.616;2023-04-24T07:12:42;13.80;99.90
6863;DHT22;3470;48.738;9.616;2023-04-24T07:15:08;13.10;99.90
6863;DHT22;3470;48.738;9.616;2023-04-24T07:17:34;12.70;99.90
6863;DHT22;3470;48.738;9.616;2023-04-24T07:20:00;13.00;99.90
6863;DHT22;3470;48.738;9.616;2023-04-24T07:22:26;12.80;99.90
6863;DHT22;3470;48.738;9.616;2023-04-24T07:24:51;13.00;99.90
6863;DHT22;3470;48.738;9.616;2023-04-24T07:27:17;13.10;99.90
6863;DHT22;3470;48.738;9.616;2023-04-24T07:29:43;13.50;99.90
6863;DHT22;3470;48.738;9.616;2023-04-24T07:32:08;14.10;99.90
6863;DHT22;3470;48.738;9.616;2023-04-24T07:34:34;13.70;99.90
6863;DHT22;3470;48.738;9.616;2023-04-24T07:37:00;12.20;99.90
6863;DHT22;3470;48.738;9.616;2023-04-24T07:39:26;12.00;99.90
6863;DHT22;3470;48.738;9.616;2023-04-24T07:41:51;11.70;99.90
6863;DHT22;3470;48.738;9.616;2023-04-24T07:44:17;13.10;99.90
6863;DHT22;3470;48.738;9.616;2023-04-24T07:46:43;14.70;99.90
6863;DHT22;3470;48.738;9.616;2023-04-24T07:49:08;14.00;99.90
6863;DHT22;3470;48.738;9.616;2023-04-24T07:51:34;14.60;99.90
6863;DHT22;3470;48.738;9.616;2023-04-24T07:54:04;13.50;99.90
6863;DHT22;3470;48.738;9.616;2023-04-24T07:56:31;12.60;99.90
6863;DHT22;3470;48.738;9.616;2023-04-24T07:58:57;11.30;99.90
6863;DHT22;3470;48.738;9.616;2023-04-24T08:01:22;10.70;99.90
6863;DHT22;3470;48.738;9.616;2023-04-24T08:03:48;9.70;99.90
6863;DHT22;3470;48.738;9.616;2023-04-24T08:06:14;9.40;99.90
6863;DHT22;3470;48.738;9.616;2023-04-24T08:08:39;9.00;99.90
6863;DHT22;3470;48.738;9.616;2023-04-24T08:11:05;8.80;99.90
6863;DHT22;3470;48.738;9.616;2023-04-24T08:13:30;8.70;99.90
6863;DHT22;3470;48.738;9.616;2023-04-24T08:15:56;8.50;99.90
6863;DHT22;3470;48.738;9.616;2023-04-24T08:18:22;8.40;99.90
6863;DHT22;3470;48.738;9.616;2023-04-24T08:20:48;8.40;99.90
6863;DHT22;3470;48.738;9.616;2023-04-24T08:23:14;9.30;99.90
6863;DHT22;3470;48.738;9.616;2023-04-24T08:25:39;10.20;99.90
6863;DHT22;3470;48.738;9.616;2023-04-24T08:28:06;11.10;99.90
6863;DHT22;3470;48.738;9.616;2023-04-24T08:30:34;11.80;99.90
6863;DHT22;3470;48.738;9.616;2023-04-24T08:32:59;11.50;99.90
6863;DHT22;3470;48.738;9.616;2023-04-24T08:35:25;12.00;99.90
6863;DHT22;3470;48.738;9.616;2023-04-24T08:37:52;12.50;99.90
6863;DHT22;3470;48.738;9.616;2023-04-24T08:40:22;12.70;99.90
6863;DHT22;3470;48.738;9.616;2023-04-24T08:42:54;12.60;99.90
6863;DHT22;3470;48.738;9.616;2023-04-24T08:45:21;12.90;99.90
6863;DHT22;3470;48.738;9.616;2023-04-24T08:47:47;11.50;99.90
6863;DHT22;3470;48.738;9.616;2023-04-24T08:50:14;10.70;99.90
6863;DHT22;3470;48.738;9.616;2023-04-24T08:52:42;10.60;99.90
6863;DHT22;3470;48.738;9.616;2023-04-24T08:55:08;10.10;99.90
6863;DHT22;3470;48.738;9.616;2023-04-24T08:57:33;10.00;99.90
6863;DHT22;3470;48.738;9.616;2023-04-24T09:00:01;10.00;99.90
6863;DHT22;3470;48.738;9.616;2023-04-24T09:02:27;10.30;99.90
6863;DHT22;3470;48.738;9.616;2023-04-24T09:04:55;9.80;99.90
6863;DHT22;3470;48.738;9.616;2023-04-24T09:07:24;9.60;99.90
6863;DHT22;3470;48.738;9.616;2023-04-24T09:09:53;10.00;99.90
6863;DHT22;3470;48.738;9.616;2023-04-24T09:12:19;10.30;99.90
6863;DHT22;3470;48.738;9.616;2023-04-24T09:14:46;10.00;99.90
6863;DHT22;3470;48.738;9.616;2023-04-24T09:17:12;10.40;99.90
6863;DHT22;3470;48.738;9.616;2023-04-24T09:19:37;11.70;99.90
6863;DHT22;3470;48.738;9.616;2023-04-24T09:22:07;13.20;99.90
6863;DHT22;3470;48.738;9.616;2023-04-24T09:24:34;14.70;99.90
6863;DHT22;3470;48.738;9.616;2023-04-24T09:27:01;15.20;99.90
6863;DHT22;3470;48.738;9.616;2023-04-24T09:29:27;15.70;97.60
6863;DHT22;3470;48.738;9.616;2023-04-24T09:31:53;16.00;95.20
6863;DHT22;3470;48.738;9.616;2023-04-24T09:34:23;16.30;94.40
6863;DHT22;3470;48.738;9.616;2023-04-24T09:36:49;15.40;94.40
6863;DHT22;3470;48.738;9.616;2023-04-24T09:39:15;14.70;94.80
6863;DHT22;3470;48.738;9.616;2023-04-24T09:41:54;13.60;96.90
6863;DHT22;3470;48.738;9.616;2023-04-24T09:44:24;13.80;96.50
6863;DHT22;3470;48.738;9.616;2023-04-24T09:46:59;13.90;96.50
6863;DHT22;3470;48.738;9.616;2023-04-24T09:49:27;13.80;95.40
6863;DHT22;3470;48.738;9.616;2023-04-24T09:52:05;13.70;94.30
6863;DHT22;3470;48.738;9.616;2023-04-24T09:54:31;12.60;95.90
6863;DHT22;3470;48.738;9.616;2023-04-24T09:56:56;12.40;95.40
6863;DHT22;3470;48.738;9.616;2023-04-24T09:59:22;12.30;96.20
6863;DHT22;3470;48.738;9.616;2023-04-24T10:01:48;12.10;96.30
6863;DHT22;3470;48.738;9.616;2023-04-24T10:04:25;12.20;95.10
6863;DHT22;3470;48.738;9.616;2023-04-24T10:06:53;12.40;94.20
6863;DHT22;3470;48.738;9.616;2023-04-24T10:09:23;13.10;93.50
6863;DHT22;3470;48.738;9.616;2023-04-24T10:11:51;15.10;91.00
6863;DHT22;3470;48.738;9.616;2023-04-24T10:14:20;16.20;89.90
6863;DHT22;3470;48.738;9.616;2023-04-24T10:16:49;15.40;90.10
6863;DHT22;3470;48.738;9.616;2023-04-24T10:19:16;15.00;90.30
6863;DHT22;3470;48.738;9.616;2023-04-24T10:21:44;15.00;90.80
6863;DHT22;3470;48.738;9.616;2023-04-24T10:24:14;14.80;89.60
6863;DHT22;3470;48.738;9.616;2023-04-24T10:26:41;14.30;89.90
6863;DHT22;3470;48.738;9.616;2023-04-24T10:29:07;15.40;86.00
6863;DHT22;3470;48.738;9.616;2023-04-24T10:31:37;16.30;84.40
6863;DHT22;3470;48.738;9.616;2023-04-24T10:34:05;15.60;81.20
6863;DHT22;3470;48.738;9.616;2023-04-24T10:36:32;16.20;80.10
6863;DHT22;3470;48.738;9.616;2023-04-24T10:39:01;16.00;79.40
6863;DHT22;3470;48.738;9.616;2023-04-24T10:41:30;15.00;82.90
6863;DHT22;3470;48.738;9.616;2023-04-24T10:44:08;14.80;83.90
6863;DHT22;3470;48.738;9.616;2023-04-24T10:46:34;14.00;86.80
6863;DHT22;3470;48.738;9.616;2023-04-24T10:49:03;13.90;88.30
6863;DHT22;3470;48.738;9.616;2023-04-24T10:54:33;14.80;86.40
6863;DHT22;3470;48.738;9.616;2023-04-24T10:59:44;17.90;79.70
6863;DHT22;3470;48.738;9.616;2023-04-24T11:02:10;18.90;72.10
6863;DHT22;3470;48.738;9.616;2023-04-24T11:04:35;16.10;78.20
6863;DHT22;3470;48.738;9.616;2023-04-24T11:07:03;16.10;74.40
6863;DHT22;3470;48.738;9.616;2023-04-24T11:09:31;16.50;76.80
6863;DHT22;3470;48.738;9.616;2023-04-24T11:12:08;17.90;73.60
6863;DHT22;3470;48.738;9.616;2023-04-24T11:17:35;15.90;75.50
6863;DHT22;3470;48.738;9.616;2023-04-24T11:20:11;16.90;75.90
6863;DHT22;3470;48.738;9.616;2023-04-24T11:22:38;17.70;75.70
6863;DHT22;3470;48.738;9.616;2023-04-24T11:25:06;16.20;77.90
6863;DHT22;3470;48.738;9.616;2023-04-24T11:27:39;14.40;80.30
6863;DHT22;3470;48.738;9.616;2023-04-24T11:30:06;14.00;81.20
6863;DHT22;3470;48.738;9.616;2023-04-24T11:32:42;13.50;85.40
6863;DHT22;3470;48.738;9.616;2023-04-24T11:35:18;12.70;86.10
6863;DHT22;3470;48.738;9.616;2023-04-24T11:37:50;12.30;87.70
6863;DHT22;3470;48.738;9.616;2023-04-24T11:40:18;11.70;88.80
6863;DHT22;3470;48.738;9.616;2023-04-24T11:42:47;11.50;90.50
6863;DHT22;3470;48.738;9.616;2023-04-24T11:45:17;11.70;90.40
6863;DHT22;3470;48.738;9.616;2023-04-24T11:47:44;11.50;90.80
6863;DHT22;3470;48.738;9.616;2023-04-24T11:50:13;11.50;91.20
6863;DHT22;3470;48.738;9.616;2023-04-24T11:52:50;11.50;91.40
6863;DHT22;3470;48.738;9.616;2023-04-24T11:57:46;11.20;91.70
6863;DHT22;3470;48.738;9.616;2023-04-24T12:00:16;11.00;93.20
6863;DHT22;3470;48.738;9.616;2023-04-24T12:02:42;10.70;99.90
6863;DHT22;3470;48.738;9.616;2023-04-24T12:05:08;10.70;99.20
6863;DHT22;3470;48.738;9.616;2023-04-24T12:07:41;11.00;96.90
6863;DHT22;3470;48.738;9.616;2023-04-24T12:10:08;11.40;95.00
6863;DHT22;3470;48.738;9.616;2023-04-24T12:12:34;11.70;93.20
6863;DHT22;3470;48.738;9.616;2023-04-24T12:15:01;11.90;92.80
6863;DHT22;3470;48.738;9.616;2023-04-24T12:17:32;12.30;92.80
6863;DHT22;3470;48.738;9.616;2023-04-24T12:20:03;12.10;91.30
6863;DHT22;3470;48.738;9.616;2023-04-24T12:22:46;12.00;92.30
6863;DHT22;3470;48.738;9.616;2023-04-24T12:25:13;12.30;91.70
6863;DHT22;3470;48.738;9.616;2023-04-24T12:27:39;11.70;91.90
6863;DHT22;3470;48.738;9.616;2023-04-24T12:30:05;11.10;92.70
6863;DHT22;3470;48.738;9.616;2023-04-24T12:32:31;10.80;93.40
6863;DHT22;3470;48.738;9.616;2023-04-24T12:34:57;10.80;92.90
6863;DHT22;3470;48.738;9.616;2023-04-24T12:37:25;10.80;93.00
6863;DHT22;3470;48.738;9.616;2023-04-24T12:42:28;11.80;93.10
6863;DHT22;3470;48.738;9.616;2023-04-24T12:44:58;12.80;91.30
6863;DHT22;3470;48.738;9.616;2023-04-24T12:47:27;13.10;89.50
6863;DHT22;3470;48.738;9.616;2023-04-24T12:49:53;13.50;89.40
6863;DHT22;3470;48.738;9.616;2023-04-24T12:52:21;14.00;89.40
6863;DHT22;3470;48.738;9.616;2023-04-24T12:54:47;15.50;86.00
6863;DHT22;3470;48.738;9.616;2023-04-24T12:57:12;14.60;86.70
6863;DHT22;3470;48.738;9.616;2023-04-24T12:59:38;13.80;88.80
6863;DHT22;3470;48.738;9.616;2023-04-24T13:02:04;12.60;90.10
6863;DHT22;3470;48.738;9.616;2023-04-24T13:04:30;11.80;91.50
6863;DHT22;3470;48.738;9.616;2023-04-24T13:06:56;11.30;93.80
6863;DHT22;3470;48.738;9.616;2023-04-24T13:09:21;11.00;96.40
6863;DHT22;3470;48.738;9.616;2023-04-24T13:11:47;11.10;94.60
6863;DHT22;3470;48.738;9.616;2023-04-24T13:14:12;11.30;93.80
6863;DHT22;3470;48.738;9.616;2023-04-24T13:16:38;11.50;93.00
6863;DHT22;3470;48.738;9.616;2023-04-24T13:19:04;11.90;92.90
6863;DHT22;3470;48.738;9.616;2023-04-24T13:21:29;12.30;91.80
6863;DHT22;3470;48.738;9.616;2023-04-24T13:23:55;13.30;90.50
6863;DHT22;3470;48.738;9.616;2023-04-24T13:26:21;13.00;92.00
6863;DHT22;3470;48.738;9.616;2023-04-24T13:28:46;12.40;91.70
6863;DHT22;3470;48.738;9.616;2023-04-24T13:31:12;12.00;92.90
6863;DHT22;3470;48.738;9.616;2023-04-24T13:33:39;11.60;93.80
6863;DHT22;3470;48.738;9.616;2023-04-24T13:36:05;11.20;93.50
6863;DHT22;3470;48.738;9.616;2023-04-24T13:38:31;11.10;94.30
6863;DHT22;3470;48.738;9.616;2023-04-24T13:40:57;11.00;94.00
6863;DHT22;3470;48.738;9.616;2023-04-24T13:43:22;11.10;93.90
6863;DHT22;3470;48.738;9.616;2023-04-24T13:45:48;11.30;93.80
6863;DHT22;3470;48.738;9.616;2023-04-24T13:48:14;11.40;94.30
6863;DHT22;3470;48.738;9.616;2023-04-24T13:50:43;11.50;94.00
6863;DHT22;3470;48.738;9.616;2023-04-24T13:53:09;11.50;94.30
6863;DHT22;3470;48.738;9.616;2023-04-24T13:55:35;11.50;95.50
6863;DHT22;3470;48.738;9.616;2023-04-24T13:58:01;11.70;95.00
6863;DHT22;3470;48.738;9.616;2023-04-24T14:00:28;11.40;94.70
6863;DHT22;3470;48.738;9.616;2023-04-24T14:02:53;11.80;94.10
6863;DHT22;3470;48.738;9.616;2023-04-24T14:05:19;12.60;92.40
6863;DHT22;3470;48.738;9.616;2023-04-24T14:07:46;13.80;90.80
6863;DHT22;3470;48.738;9.616;2023-04-24T14:10:11;14.80;88.90
6863;DHT22;3470;48.738;9.616;2023-04-24T14:12:37;13.50;90.60
6863;DHT22;3470;48.738;9.616;2023-04-24T14:15:03;13.30;91.30
6863;DHT22;3470;48.738;9.616;2023-04-24T14:17:30;12.70;92.00
6863;DHT22;3470;48.738;9.616;2023-04-24T14:19:56;11.90;93.60
6863;DHT22;3470;48.738;9.616;2023-04-24T14:22:22;11.40;94.20
6863;DHT22;3470;48.738;9.616;2023-04-24T14:24:48;11.30;95.20
6863;DHT22;3470;48.738;9.616;2023-04-24T14:27:13;11.20;95.10
6863;DHT22;3470;48.738;9.616;2023-04-24T14:29:39;11.20;96.20
6863;DHT22;3470;48.738;9.616;2023-04-24T14:32:04;10.80;95.60
6863;DHT22;3470;48.738;9.616;2023-04-24T14:34:30;10.40;99.70
6863;DHT22;3470;48.738;9.616;2023-04-24T14:36:56;10.10;99.90
6863;DHT22;3470;48.738;9.616;2023-04-24T14:39:21;9.80;99.90
6863;DHT22;3470;48.738;9.616;2023-04-24T14:41:47;9.70;99.90
6863;DHT22;3470;48.738;9.616;2023-04-24T14:44:13;9.70;99.90
6863;DHT22;3470;48.738;9.616;2023-04-24T14:46:38;9.90;99.90
6863;DHT22;3470;48.738;9.616;2023-04-24T14:49:04;10.30;99.90
6863;DHT22;3470;48.738;9.616;2023-04-24T14:51:30;10.90;99.90
6863;DHT22;3470;48.738;9.616;2023-04-24T14:53:56;12.10;99.90
6863;DHT22;3470;48.738;9.616;2023-04-24T14:56:23;12.30;99.00
6863;DHT22;3470;48.738;9.616;2023-04-24T14:58:48;12.30;97.60
6863;DHT22;3470;48.738;9.616;2023-04-24T15:01:14;12.70;98.30
6863;DHT22;3470;48.738;9.616;2023-04-24T15:03:39;12.80;97.10
6863;DHT22;3470;48.738;9.616;2023-04-24T15:06:05;12.60;98.00
6863;DHT22;3470;48.738;9.616;2023-04-24T15:08:31;12.20;98.60
6863;DHT22;3470;48.738;9.616;2023-04-24T15:10:57;11.90;99.20
6863;DHT22;3470;48.738;9.616;2023-04-24T15:13:22;11.60;99.70
6863;DHT22;3470;48.738;9.616;2023-04-24T15:15:48;11.40;99.90
6863;DHT22;3470;48.738;9.616;2023-04-24T15:18:14;10.80;99.90
6863;DHT22;3470;48.738;9.616;2023-04-24T15:20:39;9.90;99.90
6863;DHT22;3470;48.738;9.616;2023-04-24T15:23:08;10.30;99.90
6863;DHT22;3470;48.738;9.616;2023-04-24T15:25:34;11.00;99.90
6863;DHT22;3470;48.738;9.616;2023-04-24T15:27:59;12.40;99.30
6863;DHT22;3470;48.738;9.616;2023-04-24T15:30:26;13.10;96.70
6863;DHT22;3470;48.738;9.616;2023-04-24T15:32:51;13.30;94.90
6863;DHT22;3470;48.738;9.616;2023-04-24T15:35:17;12.20;96.80
6863;DHT22;3470;48.738;9.616;2023-04-24T15:37:43;11.80;97.50
6863;DHT22;3470;48.738;9.616;2023-04-24T15:40:09;11.90;96.80
6863;DHT22;3470;48.738;9.616;2023-04-24T15:42:36;12.50;95.90
6863;DHT22;3470;48.738;9.616;2023-04-24T15:45:02;12.30;94.20
6863;DHT22;3470;48.738;9.616;2023-04-24T15:47:28;11.60;96.50
6863;DHT22;3470;48.738;9.616;2023-04-24T15:49:54;11.50;97.30
6863;DHT22;3470;48.738;9.616;2023-04-24T15:52:21;11.20;97.90
6863;DHT22;3470;48.738;9.616;2023-04-24T15:54:46;10.90;98.70
6863;DHT22;3470;48.738;9.616;2023-04-24T15:57:12;10.80;98.30
6863;DHT22;3470;48.738;9.616;2023-04-24T15:59:38;10.70;98.30
6863;DHT22;3470;48.738;9.616;2023-04-24T16:02:11;10.90;99.90
6863;DHT22;3470;48.738;9.616;2023-04-24T16:04:46;11.10;99.70
6863;DHT22;3470;48.738;9.616;2023-04-24T16:07:13;11.20;99.50
6863;DHT22;3470;48.738;9.616;2023-04-24T16:09:40;11.10;98.60
6863;DHT22;3470;48.738;9.616;2023-04-24T16:12:06;11.10;99.20
6863;DHT22;3470;48.738;9.616;2023-04-24T16:14:32;11.30;98.70
6863;DHT22;3470;48.738;9.616;2023-04-24T16:16:57;11.40;98.90
6863;DHT22;3470;48.738;9.616;2023-04-24T16:19:23;11.40;98.00